Time;durP1;ratioP1;P1;durP2;ratioP2;P2;SDS_P1;SDS_P2;PMS_P1;PMS_P2;Temp;Humidity;BMP_temperature;BMP_pressure;BME280_temperature;BME280_humidity;BME280_pressure;Samples;Min_cycle;Max_cycle;Signal;HPM_P1;HPM_P2
2023/06/05 17:17:51;;;;;;;74.97;8.93;;;;;;;;;;5026811;28;20406;-56
2023/06/05 17:20:16;;;;;;;65.88;8.85;;;;;;;;;;5018885;28;20026;-57
2023/06/05 17:22:41;;;;;;;45.35;6.43;;;;;;;;;;4989763;28;20030;-58
2023/06/05 17:25:10;;;;;;;55.47;7.47;;;;;;;;;;4987752;28;20508;-55
2023/06/05 17:27:36;;;;;;;42.92;6.05;;;;;;;;;;5006553;28;20319;-56
2023/06/05 17:30:02;;;;;;;71.55;8.35;;;;;;;;;;5007504;28;20034;-56
2023/06/05 17:32:27;;;;;;;76.25;8.50;;;;;;;;;;5002966;28;20041;-56
2023/06/05 17:34:52;;;;;;;62.40;7.73;;;;;;;;;;5005628;28;20031;-57
2023/06/05 17:37:17;;;;;;;101.30;11.13;;;;;;;;;;5005938;28;20444;-57
2023/06/05 17:39:43;;;;;;;66.47;7.97;;;;;;;;;;5006935;28;20284;-57
2023/06/05 17:42:08;;;;;;;79.70;9.20;;;;;;;;;;5002606;28;20296;-55
2023/06/05 17:44:34;;;;;;;54.70;7.03;;;;;;;;;;5005589;28;20083;-56
2023/06/05 17:46:59;;;;;;;56.88;6.97;;;;;;;;;;5004424;28;20459;-58
2023/06/05 17:49:24;;;;;;;112.83;11.63;;;;;;;;;;5004021;28;20036;-57
2023/06/05 17:51:49;;;;;;;79.97;9.02;;;;;;;;;;5006998;28;20847;-55
2023/06/05 17:54:15;;;;;;;98.30;10.60;;;;;;;;;;5006352;28;20413;-56
2023/06/05 17:56:40;;;;;;;58.25;7.00;;;;;;;;;;5006280;28;20812;-60
2023/06/05 17:59:06;;;;;;;60.65;7.32;;;;;;;;;;5005040;28;20091;-56
2023/06/05 18:01:31;;;;;;;69.10;7.78;;;;;;;;;;5003154;28;20061;-57
2023/06/05 18:03:59;;;;;;;60.55;7.15;;;;;;;;;;5006867;28;20048;-58
2023/06/05 18:06:24;;;;;;;106.85;11.50;;;;;;;;;;5005141;28;20056;-58
2023/06/05 18:08:49;;;;;;;61.95;7.72;;;;;;;;;;5006071;28;20048;-57
2023/06/05 18:11:15;;;;;;;112.97;11.60;;;;;;;;;;5003395;28;20064;-56
2023/06/05 18:13:41;;;;;;;64.25;7.47;;;;;;;;;;5006147;28;20030;-56
2023/06/05 18:16:06;;;;;;;55.55;6.88;;;;;;;;;;5004747;28;20048;-58
2023/06/05 18:18:32;;;;;;;64.93;7.37;;;;;;;;;;5008103;28;20439;-55
2023/06/05 18:20:57;;;;;;;58.22;7.47;;;;;;;;;;5008330;28;20281;-55
2023/06/05 18:23:22;;;;;;;112.20;11.73;;;;;;;;;;5005376;28;20057;-55
2023/06/05 18:25:47;;;;;;;72.33;8.20;;;;;;;;;;5003567;28;20655;-57
2023/06/05 18:28:13;;;;;;;99.87;10.37;;;;;;;;;;4997378;28;20268;-56
2023/06/05 18:30:38;;;;;;;72.07;7.65;;;;;;;;;;4991633;28;20375;-54
2023/06/05 18:33:03;;;;;;;62.42;7.18;;;;;;;;;;4989637;28;20686;-59
2023/06/05 18:35:29;;;;;;;66.45;7.85;;;;;;;;;;4991110;28;20038;-58
2023/06/05 18:37:54;;;;;;;73.22;8.00;;;;;;;;;;4991857;28;20022;-56
2023/06/05 18:40:20;;;;;;;91.80;9.55;;;;;;;;;;4989255;28;20054;-56
2023/06/05 18:42:45;;;;;;;65.13;7.30;;;;;;;;;;4991260;28;20022;-56
2023/06/05 18:45:11;;;;;;;77.17;8.03;;;;;;;;;;4989549;28;20085;-54
2023/06/05 18:47:36;;;;;;;58.97;6.53;;;;;;;;;;4991879;28;20277;-59
2023/06/05 18:50:01;;;;;;;63.10;6.80;;;;;;;;;;4992563;28;20049;-56
2023/06/05 18:52:27;;;;;;;102.93;10.18;;;;;;;;;;4989938;28;20050;-55
2023/06/05 18:54:52;;;;;;;68.38;7.40;;;;;;;;;;4994261;28;20038;-55
2023/06/05 18:57:18;;;;;;;114.28;11.38;;;;;;;;;;4990646;28;20069;-57
2023/06/05 18:59:43;;;;;;;64.22;7.40;;;;;;;;;;4991853;28;20467;-57
2023/06/05 19:02:08;;;;;;;67.82;7.53;;;;;;;;;;4989069;28;20069;-55
2023/06/05 19:04:34;;;;;;;60.40;7.23;;;;;;;;;;4990481;28;20045;-57
2023/06/05 19:06:59;;;;;;;67.50;7.53;;;;;;;;;;4990616;28;20284;-55
2023/06/05 19:09:24;;;;;;;113.18;10.88;;;;;;;;;;4991271;28;20152;-55
2023/06/05 19:11:50;;;;;;;110.32;10.63;;;;;;;;;;4988706;28;20120;-54
2023/06/05 19:14:17;;;;;;;77.43;7.78;;;;;;;;;;4989507;28;20376;-56
2023/06/05 19:16:42;;;;;;;72.32;7.65;;;;;;;;;;4990420;28;20073;-56
2023/06/05 19:19:07;;;;;;;55.60;6.57;;;;;;;;;;4991889;28;20105;-56
2023/06/05 19:21:34;;;;;;;76.82;7.93;;;;;;;;;;4987783;28;20282;-56
2023/06/05 19:23:59;;;;;;;66.53;7.57;;;;;;;;;;4991428;28;20109;-56
2023/06/05 19:26:25;;;;;;;94.50;9.53;;;;;;;;;;4988806;28;20117;-56
2023/06/05 19:28:51;;;;;;;85.13;8.75;;;;;;;;;;4992378;28;20309;-56
2023/06/05 19:31:16;;;;;;;95.72;9.98;;;;;;;;;;4988727;28;20048;-55
2023/06/05 19:33:41;;;;;;;67.70;7.88;;;;;;;;;;4990031;28;20148;-53
2023/06/05 19:36:07;;;;;;;72.70;7.90;;;;;;;;;;4992699;28;20061;-54
2023/06/05 19:38:32;;;;;;;82.80;8.43;;;;;;;;;;4989519;28;20030;-57
2023/06/05 19:40:58;;;;;;;52.30;6.53;;;;;;;;;;4990904;28;20146;-58
2023/06/05 19:43:24;;;;;;;113.22;11.73;;;;;;;;;;4989894;28;20029;-55
2023/06/05 19:45:49;;;;;;;69.17;7.73;;;;;;;;;;4992402;28;20042;-56
2023/06/05 19:48:14;;;;;;;55.97;6.70;;;;;;;;;;4992064;28;20260;-55
2023/06/05 19:50:40;;;;;;;66.03;7.55;;;;;;;;;;4993039;28;20360;-55
2023/06/05 19:53:05;;;;;;;74.97;7.88;;;;;;;;;;4991536;28;20030;-54
2023/06/05 19:55:30;;;;;;;111.27;11.17;;;;;;;;;;4990044;28;20030;-56
2023/06/05 19:57:56;;;;;;;60.63;7.43;;;;;;;;;;4991809;28;20265;-57
2023/06/05 20:00:21;;;;;;;86.15;8.75;;;;;;;;;;4990586;28;20268;-57
2023/06/05 20:02:46;;;;;;;76.30;8.50;;;;;;;;;;4989550;28;20467;-55
2023/06/05 20:05:13;;;;;;;51.53;6.70;;;;;;;;;;4991428;28;20463;-56
2023/06/05 20:07:38;;;;;;;70.57;8.43;;;;;;;;;;4989166;28;20069;-55
2023/06/05 20:10:04;;;;;;;77.43;8.43;;;;;;;;;;4991530;28;20058;-54
2023/06/05 20:12:29;;;;;;;98.80;10.88;;;;;;;;;;4986540;28;20038;-55
2023/06/05 20:14:55;;;;;;;73.82;8.70;;;;;;;;;;4990587;28;20101;-57
2023/06/05 20:17:20;;;;;;;87.68;9.30;;;;;;;;;;4988603;28;20491;-58
2023/06/05 20:19:45;;;;;;;60.50;7.77;;;;;;;;;;4989358;28;20029;-56
2023/06/05 20:22:10;;;;;;;81.63;8.70;;;;;;;;;;4988383;28;20281;-57
2023/06/05 20:24:36;;;;;;;79.70;8.47;;;;;;;;;;4986938;28;20262;-56
2023/06/05 20:27:02;;;;;;;79.78;8.27;;;;;;;;;;4988967;28;20845;-56
2023/06/05 20:29:27;;;;;;;106.38;10.95;;;;;;;;;;4988337;28;20444;-57
2023/06/05 20:31:52;;;;;;;93.85;9.80;;;;;;;;;;4986544;28;20125;-55
2023/06/05 20:34:18;;;;;;;85.10;8.85;;;;;;;;;;4987061;28;20030;-56
2023/06/05 20:36:45;;;;;;;64.50;7.72;;;;;;;;;;4990533;28;20050;-58
2023/06/05 20:39:16;;;;;;;70.53;8.05;;;;;;;;;;4989948;28;20034;-56
2023/06/05 20:41:42;;;;;;;57.63;7.38;;;;;;;;;;4987742;28;20066;-55
2023/06/05 20:44:07;;;;;;;62.35;7.28;;;;;;;;;;4989090;28;20096;-56
2023/06/05 20:46:37;;;;;;;126.22;12.27;;;;;;;;;;4987495;28;20125;-57
2023/06/05 20:49:03;;;;;;;61.70;7.43;;;;;;;;;;4989479;28;20026;-56
2023/06/05 20:51:29;;;;;;;125.50;12.50;;;;;;;;;;4989493;28;20113;-56
2023/06/05 20:53:54;;;;;;;51.38;6.80;;;;;;;;;;4989444;28;20069;-57
2023/06/05 20:56:26;;;;;;;66.68;8.15;;;;;;;;;;4989456;28;20145;-58
2023/06/05 20:58:52;;;;;;;49.10;7.00;;;;;;;;;;4989050;28;20077;-54
2023/06/05 21:01:17;;;;;;;57.53;7.05;;;;;;;;;;4991082;28;20129;-55
2023/06/05 21:03:42;;;;;;;41.20;6.20;;;;;;;;;;4990733;28;20473;-57
2023/06/05 21:06:08;;;;;;;45.03;6.50;;;;;;;;;;4991398;28;20304;-56
2023/06/05 21:08:33;;;;;;;74.50;8.77;;;;;;;;;;4990139;28;20497;-57
2023/06/05 21:10:58;;;;;;;49.73;6.73;;;;;;;;;;4990211;28;20299;-57
2023/06/05 21:13:24;;;;;;;97.88;10.57;;;;;;;;;;4988147;28;20279;-58
2023/06/05 21:15:49;;;;;;;46.60;6.50;;;;;;;;;;4988218;28;20050;-57
2023/06/05 21:18:14;;;;;;;35.93;6.00;;;;;;;;;;4990357;28;20037;-58
2023/06/05 21:20:39;;;;;;;40.33;6.30;;;;;;;;;;4989051;28;20285;-58
2023/06/05 21:23:05;;;;;;;45.65;6.88;;;;;;;;;;4988105;28;20029;-55
2023/06/05 21:25:30;;;;;;;95.60;10.65;;;;;;;;;;4987769;28;20038;-56
2023/06/05 21:27:56;;;;;;;48.13;6.85;;;;;;;;;;4991835;28;20515;-56
2023/06/05 21:30:22;;;;;;;46.67;6.63;;;;;;;;;;4987919;28;20037;-57
2023/06/05 21:32:47;;;;;;;99.28;10.27;;;;;;;;;;4990195;28;20265;-55
